sensor_id;sensor_type;location;lat;lon;timestamp;P1;durP1;ratioP1;P2;durP2;ratioP2
18196;SDS011;9224;52.422;13.024;2022-09-03T00:01:26;1.70;;;1.60;;
18196;SDS011;9224;52.422;13.024;2022-09-03T00:03:54;1.92;;;1.67;;
18196;SDS011;9224;52.422;13.024;2022-09-03T00:06:24;1.88;;;1.75;;
18196;SDS011;9224;52.422;13.024;2022-09-03T00:08:54;1.90;;;1.80;;
18196;SDS011;9224;52.422;13.024;2022-09-03T00:11:25;1.73;;;1.63;;
18196;SDS011;9224;52.422;13.024;2022-09-03T00:13:57;3.13;;;1.77;;
18196;SDS011;9224;52.422;13.024;2022-09-03T00:16:28;2.13;;;1.90;;
18196;SDS011;9224;52.422;13.024;2022-09-03T00:18:57;2.15;;;1.88;;
18196;SDS011;9224;52.422;13.024;2022-09-03T00:21:29;1.83;;;1.73;;
18196;SDS011;9224;52.422;13.024;2022-09-03T00:23:59;2.58;;;1.88;;
18196;SDS011;9224;52.422;13.024;2022-09-03T00:26:31;2.22;;;1.75;;
18196;SDS011;9224;52.422;13.024;2022-09-03T00:29:00;2.30;;;1.88;;
18196;SDS011;9224;52.422;13.024;2022-09-03T00:31:29;2.63;;;1.77;;
18196;SDS011;9224;52.422;13.024;2022-09-03T00:34:01;1.60;;;1.50;;
18196;SDS011;9224;52.422;13.024;2022-09-03T00:36:31;1.73;;;1.63;;
18196;SDS011;9224;52.422;13.024;2022-09-03T00:38:59;2.13;;;1.88;;
18196;SDS011;9224;52.422;13.024;2022-09-03T00:41:28;2.13;;;1.80;;
18196;SDS011;9224;52.422;13.024;2022-09-03T00:44:08;2.17;;;1.60;;
18196;SDS011;9224;52.422;13.024;2022-09-03T00:46:44;3.72;;;1.77;;
18196;SDS011;9224;52.422;13.024;2022-09-03T00:49:26;2.50;;;1.80;;
18196;SDS011;9224;52.422;13.024;2022-09-03T00:52:00;1.92;;;1.77;;
18196;SDS011;9224;52.422;13.024;2022-09-03T00:54:31;3.50;;;1.73;;
18196;SDS011;9224;52.422;13.024;2022-09-03T00:57:08;2.50;;;1.70;;
18196;SDS011;9224;52.422;13.024;2022-09-03T00:59:44;1.85;;;1.73;;
18196;SDS011;9224;52.422;13.024;2022-09-03T01:02:15;2.15;;;1.80;;
18196;SDS011;9224;52.422;13.024;2022-09-03T01:04:50;1.92;;;1.80;;
18196;SDS011;9224;52.422;13.024;2022-09-03T01:07:22;3.53;;;1.80;;
18196;SDS011;9224;52.422;13.024;2022-09-03T01:09:58;2.47;;;1.73;;
18196;SDS011;9224;52.422;13.024;2022-09-03T01:12:34;1.80;;;1.70;;
18196;SDS011;9224;52.422;13.024;2022-09-03T01:15:09;1.70;;;1.60;;
18196;SDS011;9224;52.422;13.024;2022-09-03T01:17:41;1.90;;;1.70;;
18196;SDS011;9224;52.422;13.024;2022-09-03T01:20:18;2.00;;;1.73;;
18196;SDS011;9224;52.422;13.024;2022-09-03T01:25:55;1.83;;;1.73;;
18196;SDS011;9224;52.422;13.024;2022-09-03T01:28:37;2.13;;;1.75;;
18196;SDS011;9224;52.422;13.024;2022-09-03T01:31:12;2.75;;;1.83;;
18196;SDS011;9224;52.422;13.024;2022-09-03T01:33:47;2.65;;;1.92;;
18196;SDS011;9224;52.422;13.024;2022-09-03T01:36:19;2.58;;;2.00;;
18196;SDS011;9224;52.422;13.024;2022-09-03T01:38:50;2.22;;;1.80;;
18196;SDS011;9224;52.422;13.024;2022-09-03T01:41:23;2.10;;;1.80;;
18196;SDS011;9224;52.422;13.024;2022-09-03T01:44:13;3.35;;;2.10;;
18196;SDS011;9224;52.422;13.024;2022-09-03T01:46:47;1.73;;;1.63;;
18196;SDS011;9224;52.422;13.024;2022-09-03T01:49:17;2.22;;;1.73;;
18196;SDS011;9224;52.422;13.024;2022-09-03T01:51:47;2.88;;;1.75;;
18196;SDS011;9224;52.422;13.024;2022-09-03T01:54:29;2.38;;;1.85;;
18196;SDS011;9224;52.422;13.024;2022-09-03T01:57:13;2.10;;;1.70;;
18196;SDS011;9224;52.422;13.024;2022-09-03T01:59:50;2.15;;;1.75;;
18196;SDS011;9224;52.422;13.024;2022-09-03T02:02:23;2.60;;;2.17;;
18196;SDS011;9224;52.422;13.024;2022-09-03T02:04:55;3.20;;;1.75;;
18196;SDS011;9224;52.422;13.024;2022-09-03T02:07:26;2.25;;;1.88;;
18196;SDS011;9224;52.422;13.024;2022-09-03T02:09:57;2.03;;;1.77;;
18196;SDS011;9224;52.422;13.024;2022-09-03T02:12:24;1.98;;;1.50;;
18196;SDS011;9224;52.422;13.024;2022-09-03T02:14:52;3.13;;;1.90;;
18196;SDS011;9224;52.422;13.024;2022-09-03T02:17:18;2.58;;;1.70;;
18196;SDS011;9224;52.422;13.024;2022-09-03T02:19:45;2.17;;;1.92;;
18196;SDS011;9224;52.422;13.024;2022-09-03T02:22:11;2.23;;;2.03;;
18196;SDS011;9224;52.422;13.024;2022-09-03T02:24:38;2.30;;;1.60;;
18196;SDS011;9224;52.422;13.024;2022-09-03T02:27:05;2.45;;;1.83;;
18196;SDS011;9224;52.422;13.024;2022-09-03T02:29:31;1.95;;;1.75;;
18196;SDS011;9224;52.422;13.024;2022-09-03T02:31:59;2.75;;;1.98;;
18196;SDS011;9224;52.422;13.024;2022-09-03T02:34:44;2.72;;;1.98;;
18196;SDS011;9224;52.422;13.024;2022-09-03T02:37:29;3.78;;;1.77;;
18196;SDS011;9224;52.422;13.024;2022-09-03T02:40:15;2.30;;;1.92;;
18196;SDS011;9224;52.422;13.024;2022-09-03T02:43:00;3.38;;;1.90;;
18196;SDS011;9224;52.422;13.024;2022-09-03T02:45:47;2.47;;;1.92;;
18196;SDS011;9224;52.422;13.024;2022-09-03T02:48:18;2.20;;;1.90;;
18196;SDS011;9224;52.422;13.024;2022-09-03T02:50:46;2.83;;;1.85;;
18196;SDS011;9224;52.422;13.024;2022-09-03T02:53:13;3.13;;;1.90;;
18196;SDS011;9224;52.422;13.024;2022-09-03T02:55:39;2.22;;;1.95;;
18196;SDS011;9224;52.422;13.024;2022-09-03T02:58:06;2.47;;;1.90;;
18196;SDS011;9224;52.422;13.024;2022-09-03T03:00:32;2.00;;;1.80;;
18196;SDS011;9224;52.422;13.024;2022-09-03T03:03:00;1.80;;;1.70;;
18196;SDS011;9224;52.422;13.024;2022-09-03T03:05:29;2.40;;;1.83;;
18196;SDS011;9224;52.422;13.024;2022-09-03T03:08:04;2.60;;;1.85;;
18196;SDS011;9224;52.422;13.024;2022-09-03T03:10:33;2.67;;;2.05;;
18196;SDS011;9224;52.422;13.024;2022-09-03T03:12:59;3.17;;;2.30;;
18196;SDS011;9224;52.422;13.024;2022-09-03T03:15:26;3.05;;;2.00;;
18196;SDS011;9224;52.422;13.024;2022-09-03T03:17:54;2.97;;;1.98;;
18196;SDS011;9224;52.422;13.024;2022-09-03T03:20:21;2.22;;;2.00;;
18196;SDS011;9224;52.422;13.024;2022-09-03T03:22:49;2.80;;;1.95;;
18196;SDS011;9224;52.422;13.024;2022-09-03T03:25:15;2.08;;;1.95;;
18196;SDS011;9224;52.422;13.024;2022-09-03T03:27:42;2.70;;;1.90;;
18196;SDS011;9224;52.422;13.024;2022-09-03T03:30:09;1.83;;;1.60;;
18196;SDS011;9224;52.422;13.024;2022-09-03T03:32:37;1.92;;;1.83;;
18196;SDS011;9224;52.422;13.024;2022-09-03T03:35:04;1.90;;;1.80;;
18196;SDS011;9224;52.422;13.024;2022-09-03T03:37:32;1.90;;;1.75;;
18196;SDS011;9224;52.422;13.024;2022-09-03T03:40:01;2.10;;;1.90;;
18196;SDS011;9224;52.422;13.024;2022-09-03T03:42:27;2.50;;;1.95;;
18196;SDS011;9224;52.422;13.024;2022-09-03T03:44:54;2.55;;;1.77;;
18196;SDS011;9224;52.422;13.024;2022-09-03T03:47:20;2.07;;;1.80;;
18196;SDS011;9224;52.422;13.024;2022-09-03T03:49:47;3.47;;;1.73;;
18196;SDS011;9224;52.422;13.024;2022-09-03T03:52:13;3.20;;;1.92;;
18196;SDS011;9224;52.422;13.024;2022-09-03T03:54:40;2.38;;;1.77;;
18196;SDS011;9224;52.422;13.024;2022-09-03T03:57:08;2.17;;;1.90;;
18196;SDS011;9224;52.422;13.024;2022-09-03T03:59:34;1.73;;;1.63;;
18196;SDS011;9224;52.422;13.024;2022-09-03T04:02:01;2.03;;;1.80;;
18196;SDS011;9224;52.422;13.024;2022-09-03T04:04:27;1.75;;;1.65;;
18196;SDS011;9224;52.422;13.024;2022-09-03T04:06:53;2.80;;;1.85;;
18196;SDS011;9224;52.422;13.024;2022-09-03T04:09:20;3.40;;;1.90;;
18196;SDS011;9224;52.422;13.024;2022-09-03T04:11:46;1.90;;;1.80;;
18196;SDS011;9224;52.422;13.024;2022-09-03T04:14:15;2.20;;;2.00;;
18196;SDS011;9224;52.422;13.024;2022-09-03T04:16:42;2.37;;;2.00;;
18196;SDS011;9224;52.422;13.024;2022-09-03T04:19:11;2.55;;;1.95;;
18196;SDS011;9224;52.422;13.024;2022-09-03T04:21:37;1.95;;;1.77;;
18196;SDS011;9224;52.422;13.024;2022-09-03T04:24:04;2.15;;;1.83;;
18196;SDS011;9224;52.422;13.024;2022-09-03T04:26:31;1.88;;;1.65;;
18196;SDS011;9224;52.422;13.024;2022-09-03T04:28:59;3.97;;;2.30;;
18196;SDS011;9224;52.422;13.024;2022-09-03T04:31:28;2.27;;;1.80;;
18196;SDS011;9224;52.422;13.024;2022-09-03T04:33:55;1.90;;;1.80;;
18196;SDS011;9224;52.422;13.024;2022-09-03T04:36:22;2.28;;;2.00;;
18196;SDS011;9224;52.422;13.024;2022-09-03T04:38:50;2.10;;;1.90;;
18196;SDS011;9224;52.422;13.024;2022-09-03T04:41:19;2.78;;;1.88;;
18196;SDS011;9224;52.422;13.024;2022-09-03T04:43:47;3.85;;;2.10;;
18196;SDS011;9224;52.422;13.024;2022-09-03T04:46:15;2.22;;;1.80;;
18196;SDS011;9224;52.422;13.024;2022-09-03T04:48:46;3.63;;;2.20;;
18196;SDS011;9224;52.422;13.024;2022-09-03T04:51:14;2.67;;;1.90;;
18196;SDS011;9224;52.422;13.024;2022-09-03T04:53:43;2.60;;;2.00;;
18196;SDS011;9224;52.422;13.024;2022-09-03T04:56:11;2.20;;;2.00;;
18196;SDS011;9224;52.422;13.024;2022-09-03T04:58:38;2.08;;;1.90;;
18196;SDS011;9224;52.422;13.024;2022-09-03T05:01:06;2.30;;;1.90;;
18196;SDS011;9224;52.422;13.024;2022-09-03T05:03:34;1.95;;;1.80;;
18196;SDS011;9224;52.422;13.024;2022-09-03T05:06:04;2.85;;;1.98;;
18196;SDS011;9224;52.422;13.024;2022-09-03T05:08:31;2.10;;;1.90;;
18196;SDS011;9224;52.422;13.024;2022-09-03T05:11:01;2.20;;;2.05;;
18196;SDS011;9224;52.422;13.024;2022-09-03T05:13:27;2.75;;;1.95;;
18196;SDS011;9224;52.422;13.024;2022-09-03T05:15:57;4.47;;;2.50;;
18196;SDS011;9224;52.422;13.024;2022-09-03T05:18:24;2.50;;;2.00;;
18196;SDS011;9224;52.422;13.024;2022-09-03T05:20:56;2.92;;;2.00;;
18196;SDS011;9224;52.422;13.024;2022-09-03T05:23:25;3.10;;;2.30;;
18196;SDS011;9224;52.422;13.024;2022-09-03T05:25:53;2.67;;;2.43;;
18196;SDS011;9224;52.422;13.024;2022-09-03T05:28:21;2.70;;;2.33;;
18196;SDS011;9224;52.422;13.024;2022-09-03T05:30:56;4.13;;;2.03;;
18196;SDS011;9224;52.422;13.024;2022-09-03T05:33:23;3.25;;;2.10;;
18196;SDS011;9224;52.422;13.024;2022-09-03T05:35:50;3.05;;;2.13;;
18196;SDS011;9224;52.422;13.024;2022-09-03T05:38:17;2.47;;;2.13;;
18196;SDS011;9224;52.422;13.024;2022-09-03T05:40:46;2.67;;;2.15;;
18196;SDS011;9224;52.422;13.024;2022-09-03T05:43:12;2.33;;;2.13;;
18196;SDS011;9224;52.422;13.024;2022-09-03T05:45:40;2.25;;;1.95;;
18196;SDS011;9224;52.422;13.024;2022-09-03T05:48:07;3.17;;;2.03;;
18196;SDS011;9224;52.422;13.024;2022-09-03T05:50:33;4.85;;;2.20;;
18196;SDS011;9224;52.422;13.024;2022-09-03T05:53:00;2.90;;;2.13;;
18196;SDS011;9224;52.422;13.024;2022-09-03T05:55:26;3.20;;;1.85;;
18196;SDS011;9224;52.422;13.024;2022-09-03T05:57:55;2.33;;;2.13;;
18196;SDS011;9224;52.422;13.024;2022-09-03T06:00:21;2.35;;;2.15;;
18196;SDS011;9224;52.422;13.024;2022-09-03T06:02:49;2.20;;;2.00;;
18196;SDS011;9224;52.422;13.024;2022-09-03T06:05:16;3.13;;;2.47;;
18196;SDS011;9224;52.422;13.024;2022-09-03T06:07:42;2.93;;;2.30;;
18196;SDS011;9224;52.422;13.024;2022-09-03T06:10:09;2.60;;;2.20;;
18196;SDS011;9224;52.422;13.024;2022-09-03T06:12:36;3.00;;;2.45;;
18196;SDS011;9224;52.422;13.024;2022-09-03T06:15:05;2.05;;;1.90;;
18196;SDS011;9224;52.422;13.024;2022-09-03T06:17:32;3.35;;;2.42;;
18196;SDS011;9224;52.422;13.024;2022-09-03T06:19:59;3.25;;;2.30;;
18196;SDS011;9224;52.422;13.024;2022-09-03T06:22:25;4.15;;;2.47;;
18196;SDS011;9224;52.422;13.024;2022-09-03T06:24:54;3.50;;;2.42;;
18196;SDS011;9224;52.422;13.024;2022-09-03T06:27:20;2.75;;;2.10;;
18196;SDS011;9224;52.422;13.024;2022-09-03T06:29:47;3.20;;;2.10;;
18196;SDS011;9224;52.422;13.024;2022-09-03T06:32:15;2.60;;;2.20;;
18196;SDS011;9224;52.422;13.024;2022-09-03T06:34:41;2.45;;;2.20;;
18196;SDS011;9224;52.422;13.024;2022-09-03T06:37:08;3.70;;;2.53;;
18196;SDS011;9224;52.422;13.024;2022-09-03T06:39:34;2.50;;;2.30;;
18196;SDS011;9224;52.422;13.024;2022-09-03T06:42:01;3.05;;;2.15;;
18196;SDS011;9224;52.422;13.024;2022-09-03T06:44:27;3.35;;;2.40;;
18196;SDS011;9224;52.422;13.024;2022-09-03T06:46:54;2.92;;;2.20;;
18196;SDS011;9224;52.422;13.024;2022-09-03T06:49:25;2.90;;;2.53;;
18196;SDS011;9224;52.422;13.024;2022-09-03T06:51:52;2.95;;;2.33;;
18196;SDS011;9224;52.422;13.024;2022-09-03T06:54:18;2.53;;;2.17;;
18196;SDS011;9224;52.422;13.024;2022-09-03T06:56:45;3.00;;;2.03;;
18196;SDS011;9224;52.422;13.024;2022-09-03T06:59:12;2.90;;;2.10;;
18196;SDS011;9224;52.422;13.024;2022-09-03T07:01:39;2.63;;;2.40;;
18196;SDS011;9224;52.422;13.024;2022-09-03T07:04:07;3.27;;;2.50;;
18196;SDS011;9224;52.422;13.024;2022-09-03T07:06:35;3.17;;;2.55;;
18196;SDS011;9224;52.422;13.024;2022-09-03T07:09:03;2.60;;;2.30;;
18196;SDS011;9224;52.422;13.024;2022-09-03T07:11:30;3.25;;;2.58;;
18196;SDS011;9224;52.422;13.024;2022-09-03T07:13:58;2.60;;;2.40;;
18196;SDS011;9224;52.422;13.024;2022-09-03T07:16:26;4.00;;;2.53;;
18196;SDS011;9224;52.422;13.024;2022-09-03T07:18:54;2.33;;;2.20;;
18196;SDS011;9224;52.422;13.024;2022-09-03T07:21:22;3.40;;;2.30;;
18196;SDS011;9224;52.422;13.024;2022-09-03T07:23:51;2.38;;;2.10;;
18196;SDS011;9224;52.422;13.024;2022-09-03T07:26:19;3.00;;;2.25;;
18196;SDS011;9224;52.422;13.024;2022-09-03T07:28:47;2.47;;;2.28;;
18196;SDS011;9224;52.422;13.024;2022-09-03T07:31:14;3.03;;;2.50;;
18196;SDS011;9224;52.422;13.024;2022-09-03T07:33:43;3.60;;;2.60;;
18196;SDS011;9224;52.422;13.024;2022-09-03T07:36:10;2.42;;;2.10;;
18196;SDS011;9224;52.422;13.024;2022-09-03T07:38:38;2.30;;;2.08;;
18196;SDS011;9224;52.422;13.024;2022-09-03T07:41:07;2.92;;;2.28;;
18196;SDS011;9224;52.422;13.024;2022-09-03T07:43:35;3.65;;;2.42;;
18196;SDS011;9224;52.422;13.024;2022-09-03T07:46:04;3.37;;;2.40;;
18196;SDS011;9224;52.422;13.024;2022-09-03T07:48:31;2.85;;;2.40;;
18196;SDS011;9224;52.422;13.024;2022-09-03T07:50:58;2.42;;;2.20;;
18196;SDS011;9224;52.422;13.024;2022-09-03T07:53:26;2.40;;;2.20;;
18196;SDS011;9224;52.422;13.024;2022-09-03T07:55:53;2.88;;;2.20;;
18196;SDS011;9224;52.422;13.024;2022-09-03T07:58:22;3.38;;;2.22;;
18196;SDS011;9224;52.422;13.024;2022-09-03T08:00:49;2.95;;;2.10;;
18196;SDS011;9224;52.422;13.024;2022-09-03T08:03:15;2.67;;;2.08;;
18196;SDS011;9224;52.422;13.024;2022-09-03T08:05:43;4.03;;;2.20;;
18196;SDS011;9224;52.422;13.024;2022-09-03T08:08:09;3.13;;;2.33;;
18196;SDS011;9224;52.422;13.024;2022-09-03T08:10:39;3.38;;;2.38;;
18196;SDS011;9224;52.422;13.024;2022-09-03T08:13:05;3.65;;;2.20;;
18196;SDS011;9224;52.422;13.024;2022-09-03T08:15:33;4.45;;;2.40;;
18196;SDS011;9224;52.422;13.024;2022-09-03T08:18:01;4.13;;;2.25;;
18196;SDS011;9224;52.422;13.024;2022-09-03T08:20:28;2.60;;;2.38;;
18196;SDS011;9224;52.422;13.024;2022-09-03T08:22:59;2.60;;;2.40;;
18196;SDS011;9224;52.422;13.024;2022-09-03T08:25:26;3.70;;;2.30;;
18196;SDS011;9224;52.422;13.024;2022-09-03T08:27:52;4.05;;;2.40;;
18196;SDS011;9224;52.422;13.024;2022-09-03T08:30:19;4.13;;;2.60;;
18196;SDS011;9224;52.422;13.024;2022-09-03T08:32:46;3.40;;;2.30;;
18196;SDS011;9224;52.422;13.024;2022-09-03T08:35:13;3.63;;;2.40;;
18196;SDS011;9224;52.422;13.024;2022-09-03T08:37:40;3.13;;;2.20;;
18196;SDS011;9224;52.422;13.024;2022-09-03T08:40:06;2.55;;;1.90;;
18196;SDS011;9224;52.422;13.024;2022-09-03T08:42:43;2.30;;;2.10;;
18196;SDS011;9224;52.422;13.024;2022-09-03T08:45:15;3.80;;;2.53;;
18196;SDS011;9224;52.422;13.024;2022-09-03T08:47:44;2.72;;;2.22;;
18196;SDS011;9224;52.422;13.024;2022-09-03T08:50:16;4.32;;;2.28;;
18196;SDS011;9224;52.422;13.024;2022-09-03T08:52:48;3.65;;;2.15;;
18196;SDS011;9224;52.422;13.024;2022-09-03T08:55:17;3.38;;;2.42;;
18196;SDS011;9224;52.422;13.024;2022-09-03T08:57:48;3.47;;;2.28;;
18196;SDS011;9224;52.422;13.024;2022-09-03T09:00:15;4.67;;;2.77;;
18196;SDS011;9224;52.422;13.024;2022-09-03T09:02:51;5.05;;;2.58;;
18196;SDS011;9224;52.422;13.024;2022-09-03T09:05:23;2.80;;;2.22;;
18196;SDS011;9224;52.422;13.024;2022-09-03T09:07:52;2.97;;;2.10;;
18196;SDS011;9224;52.422;13.024;2022-09-03T09:10:28;3.87;;;2.30;;
18196;SDS011;9224;52.422;13.024;2022-09-03T09:13:00;3.80;;;2.60;;
18196;SDS011;9224;52.422;13.024;2022-09-03T09:15:35;2.30;;;2.10;;
18196;SDS011;9224;52.422;13.024;2022-09-03T09:18:09;2.80;;;2.28;;
18196;SDS011;9224;52.422;13.024;2022-09-03T09:20:41;4.68;;;2.70;;
18196;SDS011;9224;52.422;13.024;2022-09-03T09:23:11;2.60;;;2.27;;
18196;SDS011;9224;52.422;13.024;2022-09-03T09:25:41;4.30;;;2.30;;
18196;SDS011;9224;52.422;13.024;2022-09-03T09:28:15;3.00;;;1.98;;
18196;SDS011;9224;52.422;13.024;2022-09-03T09:30:43;2.97;;;1.90;;
18196;SDS011;9224;52.422;13.024;2022-09-03T09:33:12;2.08;;;1.92;;
18196;SDS011;9224;52.422;13.024;2022-09-03T09:35:39;2.67;;;1.77;;
18196;SDS011;9224;52.422;13.024;2022-09-03T09:38:07;2.80;;;1.75;;
18196;SDS011;9224;52.422;13.024;2022-09-03T09:40:34;2.80;;;2.40;;
18196;SDS011;9224;52.422;13.024;2022-09-03T09:43:06;3.13;;;2.00;;
18196;SDS011;9224;52.422;13.024;2022-09-03T09:45:35;2.23;;;1.80;;
18196;SDS011;9224;52.422;13.024;2022-09-03T09:48:02;4.68;;;1.88;;
18196;SDS011;9224;52.422;13.024;2022-09-03T09:50:35;2.17;;;1.90;;
18196;SDS011;9224;52.422;13.024;2022-09-03T09:53:03;2.70;;;1.77;;
18196;SDS011;9224;52.422;13.024;2022-09-03T09:55:46;2.97;;;1.73;;
18196;SDS011;9224;52.422;13.024;2022-09-03T09:58:14;2.60;;;1.75;;
18196;SDS011;9224;52.422;13.024;2022-09-03T10:00:40;3.83;;;2.13;;
18196;SDS011;9224;52.422;13.024;2022-09-03T10:03:08;2.63;;;1.90;;
18196;SDS011;9224;52.422;13.024;2022-09-03T10:05:38;3.47;;;2.00;;
18196;SDS011;9224;52.422;13.024;2022-09-03T10:08:06;3.13;;;1.77;;
18196;SDS011;9224;52.422;13.024;2022-09-03T10:10:45;5.75;;;2.03;;
18196;SDS011;9224;52.422;13.024;2022-09-03T10:13:15;1.90;;;1.63;;
18196;SDS011;9224;52.422;13.024;2022-09-03T10:15:44;2.83;;;1.80;;
18196;SDS011;9224;52.422;13.024;2022-09-03T10:18:16;3.67;;;1.90;;
18196;SDS011;9224;52.422;13.024;2022-09-03T10:20:53;1.73;;;1.50;;
18196;SDS011;9224;52.422;13.024;2022-09-03T10:23:24;2.30;;;1.80;;
18196;SDS011;9224;52.422;13.024;2022-09-03T10:25:58;2.50;;;1.60;;
18196;SDS011;9224;52.422;13.024;2022-09-03T10:28:31;2.75;;;1.83;;
18196;SDS011;9224;52.422;13.024;2022-09-03T10:31:05;2.50;;;1.55;;
18196;SDS011;9224;52.422;13.024;2022-09-03T10:33:45;2.35;;;1.70;;
18196;SDS011;9224;52.422;13.024;2022-09-03T10:36:17;2.28;;;1.50;;
18196;SDS011;9224;52.422;13.024;2022-09-03T10:38:47;3.33;;;2.00;;
18196;SDS011;9224;52.422;13.024;2022-09-03T10:41:22;2.63;;;1.83;;
18196;SDS011;9224;52.422;13.024;2022-09-03T10:44:00;1.70;;;1.60;;
18196;SDS011;9224;52.422;13.024;2022-09-03T10:46:35;2.58;;;1.83;;
18196;SDS011;9224;52.422;13.024;2022-09-03T10:49:15;2.15;;;1.75;;
18196;SDS011;9224;52.422;13.024;2022-09-03T10:51:49;1.90;;;1.67;;
18196;SDS011;9224;52.422;13.024;2022-09-03T10:54:24;1.70;;;1.60;;
18196;SDS011;9224;52.422;13.024;2022-09-03T10:57:00;4.28;;;1.75;;
18196;SDS011;9224;52.422;13.024;2022-09-03T10:59:35;2.05;;;1.85;;
18196;SDS011;9224;52.422;13.024;2022-09-03T11:02:15;3.08;;;1.80;;
18196;SDS011;9224;52.422;13.024;2022-09-03T11:04:49;2.65;;;2.00;;
18196;SDS011;9224;52.422;13.024;2022-09-03T11:07:20;2.97;;;1.90;;
18196;SDS011;9224;52.422;13.024;2022-09-03T11:09:50;2.95;;;2.05;;
18196;SDS011;9224;52.422;13.024;2022-09-03T11:12:22;2.08;;;1.73;;
18196;SDS011;9224;52.422;13.024;2022-09-03T11:14:52;2.20;;;1.70;;
18196;SDS011;9224;52.422;13.024;2022-09-03T11:17:23;5.43;;;2.10;;
18196;SDS011;9224;52.422;13.024;2022-09-03T11:19:52;2.47;;;1.60;;
18196;SDS011;9224;52.422;13.024;2022-09-03T11:22:22;2.97;;;1.90;;
18196;SDS011;9224;52.422;13.024;2022-09-03T11:24:50;4.72;;;1.92;;
18196;SDS011;9224;52.422;13.024;2022-09-03T11:27:21;5.20;;;1.90;;
18196;SDS011;9224;52.422;13.024;2022-09-03T11:29:57;3.30;;;2.03;;
18196;SDS011;9224;52.422;13.024;2022-09-03T11:32:28;2.37;;;1.50;;
18196;SDS011;9224;52.422;13.024;2022-09-03T11:35:12;2.53;;;1.90;;
18196;SDS011;9224;52.422;13.024;2022-09-03T11:37:45;3.60;;;2.00;;
18196;SDS011;9224;52.422;13.024;2022-09-03T11:40:16;2.45;;;1.73;;
18196;SDS011;9224;52.422;13.024;2022-09-03T11:42:46;2.53;;;2.10;;
18196;SDS011;9224;52.422;13.024;2022-09-03T11:45:19;2.70;;;1.75;;
18196;SDS011;9224;52.422;13.024;2022-09-03T11:47:48;1.92;;;1.83;;
18196;SDS011;9224;52.422;13.024;2022-09-03T11:50:18;2.92;;;1.80;;
18196;SDS011;9224;52.422;13.024;2022-09-03T11:52:48;3.10;;;1.90;;
18196;SDS011;9224;52.422;13.024;2022-09-03T11:55:23;2.75;;;1.95;;
18196;SDS011;9224;52.422;13.024;2022-09-03T11:57:55;3.15;;;1.83;;
18196;SDS011;9224;52.422;13.024;2022-09-03T12:00:23;1.93;;;1.83;;
18196;SDS011;9224;52.422;13.024;2022-09-03T12:02:49;4.35;;;2.10;;
18196;SDS011;9224;52.422;13.024;2022-09-03T12:05:22;4.05;;;2.20;;
18196;SDS011;9224;52.422;13.024;2022-09-03T12:08:07;3.27;;;2.10;;
18196;SDS011;9224;52.422;13.024;2022-09-03T12:10:45;2.28;;;2.08;;
18196;SDS011;9224;52.422;13.024;2022-09-03T12:13:19;2.20;;;2.00;;
18196;SDS011;9224;52.422;13.024;2022-09-03T12:15:57;2.20;;;2.00;;
18196;SDS011;9224;52.422;13.024;2022-09-03T12:18:32;4.20;;;2.00;;
18196;SDS011;9224;52.422;13.024;2022-09-03T12:20:59;2.95;;;1.88;;
18196;SDS011;9224;52.422;13.024;2022-09-03T12:23:29;2.05;;;1.73;;
18196;SDS011;9224;52.422;13.024;2022-09-03T12:25:57;3.25;;;1.98;;
18196;SDS011;9224;52.422;13.024;2022-09-03T12:28:25;4.13;;;2.10;;
18196;SDS011;9224;52.422;13.024;2022-09-03T12:31:04;4.10;;;2.00;;
18196;SDS011;9224;52.422;13.024;2022-09-03T12:33:32;3.40;;;1.80;;
18196;SDS011;9224;52.422;13.024;2022-09-03T12:36:00;2.88;;;1.80;;
18196;SDS011;9224;52.422;13.024;2022-09-03T12:38:28;3.88;;;1.98;;
18196;SDS011;9224;52.422;13.024;2022-09-03T12:40:56;3.03;;;1.80;;
18196;SDS011;9224;52.422;13.024;2022-09-03T12:43:26;2.72;;;1.88;;
18196;SDS011;9224;52.422;13.024;2022-09-03T12:45:53;4.30;;;2.25;;
18196;SDS011;9224;52.422;13.024;2022-09-03T12:48:20;1.98;;;1.88;;
18196;SDS011;9224;52.422;13.024;2022-09-03T12:50:48;2.90;;;1.67;;
18196;SDS011;9224;52.422;13.024;2022-09-03T12:53:16;4.43;;;1.73;;
18196;SDS011;9224;52.422;13.024;2022-09-03T12:55:48;3.10;;;2.03;;
18196;SDS011;9224;52.422;13.024;2022-09-03T12:58:18;3.15;;;2.08;;
18196;SDS011;9224;52.422;13.024;2022-09-03T13:00:48;2.83;;;2.13;;
18196;SDS011;9224;52.422;13.024;2022-09-03T13:03:20;2.30;;;1.80;;
18196;SDS011;9224;52.422;13.024;2022-09-03T13:05:50;2.57;;;1.87;;
18196;SDS011;9224;52.422;13.024;2022-09-03T13:08:19;4.10;;;2.10;;
18196;SDS011;9224;52.422;13.024;2022-09-03T13:10:51;2.47;;;1.90;;
18196;SDS011;9224;52.422;13.024;2022-09-03T13:13:20;2.00;;;1.90;;
18196;SDS011;9224;52.422;13.024;2022-09-03T13:16:09;2.72;;;1.73;;
18196;SDS011;9224;52.422;13.024;2022-09-03T13:18:44;2.10;;;1.87;;
18196;SDS011;9224;52.422;13.024;2022-09-03T13:21:14;2.50;;;2.00;;
18196;SDS011;9224;52.422;13.024;2022-09-03T13:23:49;2.27;;;1.93;;
18196;SDS011;9224;52.422;13.024;2022-09-03T13:26:23;2.20;;;2.00;;
18196;SDS011;9224;52.422;13.024;2022-09-03T13:28:58;2.45;;;1.67;;
18196;SDS011;9224;52.422;13.024;2022-09-03T13:31:43;2.95;;;2.17;;
18196;SDS011;9224;52.422;13.024;2022-09-03T13:34:14;5.00;;;2.30;;
18196;SDS011;9224;52.422;13.024;2022-09-03T13:36:44;2.20;;;1.88;;
18196;SDS011;9224;52.422;13.024;2022-09-03T13:39:16;2.72;;;2.13;;
18196;SDS011;9224;52.422;13.024;2022-09-03T13:41:48;2.92;;;2.30;;
18196;SDS011;9224;52.422;13.024;2022-09-03T13:44:18;4.55;;;2.17;;
18196;SDS011;9224;52.422;13.024;2022-09-03T13:46:50;3.42;;;2.03;;
18196;SDS011;9224;52.422;13.024;2022-09-03T13:49:22;3.43;;;2.40;;
18196;SDS011;9224;52.422;13.024;2022-09-03T13:52:12;3.30;;;2.40;;
18196;SDS011;9224;52.422;13.024;2022-09-03T13:54:48;3.97;;;2.38;;
18196;SDS011;9224;52.422;13.024;2022-09-03T13:57:22;3.67;;;2.30;;
18196;SDS011;9224;52.422;13.024;2022-09-03T13:59:55;3.83;;;2.15;;
18196;SDS011;9224;52.422;13.024;2022-09-03T14:02:26;2.85;;;2.60;;
18196;SDS011;9224;52.422;13.024;2022-09-03T14:05:04;2.58;;;2.38;;
18196;SDS011;9224;52.422;13.024;2022-09-03T14:07:37;2.85;;;2.20;;
18196;SDS011;9224;52.422;13.024;2022-09-03T14:10:15;2.37;;;2.10;;
18196;SDS011;9224;52.422;13.024;2022-09-03T14:12:49;4.70;;;2.22;;
18196;SDS011;9224;52.422;13.024;2022-09-03T14:15:26;3.22;;;2.22;;
18196;SDS011;9224;52.422;13.024;2022-09-03T14:17:57;2.50;;;2.10;;
18196;SDS011;9224;52.422;13.024;2022-09-03T14:20:28;2.78;;;2.10;;
18196;SDS011;9224;52.422;13.024;2022-09-03T14:22:58;4.18;;;2.53;;
18196;SDS011;9224;52.422;13.024;2022-09-03T14:25:28;2.65;;;2.38;;
18196;SDS011;9224;52.422;13.024;2022-09-03T14:30:51;2.78;;;2.30;;
18196;SDS011;9224;52.422;13.024;2022-09-03T14:33:24;2.90;;;2.40;;
18196;SDS011;9224;52.422;13.024;2022-09-03T14:35:55;3.92;;;2.58;;
18196;SDS011;9224;52.422;13.024;2022-09-03T14:38:37;4.05;;;2.53;;
18196;SDS011;9224;52.422;13.024;2022-09-03T14:41:21;5.32;;;2.40;;
18196;SDS011;9224;52.422;13.024;2022-09-03T14:44:03;3.03;;;2.47;;
18196;SDS011;9224;52.422;13.024;2022-09-03T14:46:44;2.50;;;2.30;;
18196;SDS011;9224;52.422;13.024;2022-09-03T14:49:22;4.07;;;2.40;;
18196;SDS011;9224;52.422;13.024;2022-09-03T14:52:06;2.20;;;2.00;;
18196;SDS011;9224;52.422;13.024;2022-09-03T14:54:45;2.80;;;2.20;;
18196;SDS011;9224;52.422;13.024;2022-09-03T14:57:30;4.78;;;2.42;;
18196;SDS011;9224;52.422;13.024;2022-09-03T15:00:06;3.27;;;2.50;;
18196;SDS011;9224;52.422;13.024;2022-09-03T15:05:41;2.67;;;2.40;;
18196;SDS011;9224;52.422;13.024;2022-09-03T15:11:09;2.67;;;2.47;;
18196;SDS011;9224;52.422;13.024;2022-09-03T15:13:41;3.35;;;2.70;;
18196;SDS011;9224;52.422;13.024;2022-09-03T15:16:16;3.95;;;2.55;;
18196;SDS011;9224;52.422;13.024;2022-09-03T15:19:12;3.45;;;2.60;;
18196;SDS011;9224;52.422;13.024;2022-09-03T15:21:51;5.05;;;2.70;;